Tyndall AFB, Florida
Current Conditions -  °F | °C
As of 11:56 AM on Monday 26 Jan 2015 (Local Time) from KTDR Reporting Station
Clear Clear  
Wind Chill: 56°   Ceiling: Unl
Heat Index: 56°   Visibility: 10mi
Dew Point: 40°   Wind: 10mph
Humidity: 55%   Direction: 310°NW
Pressure: 29.95"   Gusts: 21mph
Location:  30.0279°N, 85.5073°W
Report Text: KTDR 261756Z AUTO 31009G18KT 270V340 10SM CLR 14/05 A2995 RMK AO2 SLP146 T01350047 10136 20100 58006
Loading
Personal Weather Stations






























Interactive Weather Map New forecast layout! Learn more

10-Day Weather Forecast

Advertisements
Track Severe Weather on mobile